sensor_id;sensor_type;location;lat;lon;timestamp;P1;durP1;ratioP1;P2;durP2;ratioP2
18274;SDS011;19470;49.322;7.218;2023-05-10T00:01:41;7.10;;;2.65;;
18274;SDS011;19470;49.322;7.218;2023-05-10T00:04:08;9.05;;;3.05;;
18274;SDS011;19470;49.322;7.218;2023-05-10T00:06:36;6.72;;;2.70;;
18274;SDS011;19470;49.322;7.218;2023-05-10T00:09:02;3.13;;;2.45;;
18274;SDS011;19470;49.322;7.218;2023-05-10T00:11:30;3.33;;;2.83;;
18274;SDS011;19470;49.322;7.218;2023-05-10T00:13:56;3.85;;;2.63;;
18274;SDS011;19470;49.322;7.218;2023-05-10T00:16:23;6.38;;;3.28;;
18274;SDS011;19470;49.322;7.218;2023-05-10T00:18:50;3.35;;;2.28;;
18274;SDS011;19470;49.322;7.218;2023-05-10T00:21:17;3.03;;;2.78;;
18274;SDS011;19470;49.322;7.218;2023-05-10T00:23:45;3.47;;;2.85;;
18274;SDS011;19470;49.322;7.218;2023-05-10T00:26:11;6.78;;;3.30;;
18274;SDS011;19470;49.322;7.218;2023-05-10T00:28:38;3.13;;;2.72;;
18274;SDS011;19470;49.322;7.218;2023-05-10T00:31:07;4.25;;;2.92;;
18274;SDS011;19470;49.322;7.218;2023-05-10T00:33:34;3.35;;;3.00;;
18274;SDS011;19470;49.322;7.218;2023-05-10T00:36:00;5.88;;;3.00;;
18274;SDS011;19470;49.322;7.218;2023-05-10T00:38:27;6.25;;;3.45;;
18274;SDS011;19470;49.322;7.218;2023-05-10T00:40:55;5.07;;;3.20;;
18274;SDS011;19470;49.322;7.218;2023-05-10T00:43:22;3.08;;;2.65;;
18274;SDS011;19470;49.322;7.218;2023-05-10T00:45:49;4.55;;;2.50;;
18274;SDS011;19470;49.322;7.218;2023-05-10T00:48:15;4.18;;;2.10;;
18274;SDS011;19470;49.322;7.218;2023-05-10T00:50:43;2.88;;;2.08;;
18274;SDS011;19470;49.322;7.218;2023-05-10T00:53:09;4.70;;;1.98;;
18274;SDS011;19470;49.322;7.218;2023-05-10T00:55:38;3.15;;;2.15;;
18274;SDS011;19470;49.322;7.218;2023-05-10T00:58:14;2.33;;;2.13;;
18274;SDS011;19470;49.322;7.218;2023-05-10T01:00:42;2.45;;;2.00;;
18274;SDS011;19470;49.322;7.218;2023-05-10T01:03:09;2.38;;;1.83;;
18274;SDS011;19470;49.322;7.218;2023-05-10T01:05:36;4.15;;;1.98;;
18274;SDS011;19470;49.322;7.218;2023-05-10T01:08:03;1.90;;;1.52;;
18274;SDS011;19470;49.322;7.218;2023-05-10T01:10:30;2.83;;;2.03;;
18274;SDS011;19470;49.322;7.218;2023-05-10T01:12:57;2.92;;;1.90;;
18274;SDS011;19470;49.322;7.218;2023-05-10T01:15:29;2.63;;;2.00;;
18274;SDS011;19470;49.322;7.218;2023-05-10T01:18:00;3.30;;;2.17;;
18274;SDS011;19470;49.322;7.218;2023-05-10T01:20:29;2.03;;;1.83;;
18274;SDS011;19470;49.322;7.218;2023-05-10T01:23:14;4.35;;;2.40;;
18274;SDS011;19470;49.322;7.218;2023-05-10T01:26:07;4.35;;;3.15;;
18274;SDS011;19470;49.322;7.218;2023-05-10T01:28:58;3.67;;;3.38;;
18274;SDS011;19470;49.322;7.218;2023-05-10T01:32:03;6.07;;;4.03;;
18274;SDS011;19470;49.322;7.218;2023-05-10T01:34:42;10.95;;;4.47;;
18274;SDS011;19470;49.322;7.218;2023-05-10T01:37:20;6.40;;;4.85;;
18274;SDS011;19470;49.322;7.218;2023-05-10T01:39:53;6.68;;;4.57;;
18274;SDS011;19470;49.322;7.218;2023-05-10T01:42:29;7.80;;;5.90;;
18274;SDS011;19470;49.322;7.218;2023-05-10T01:45:02;7.63;;;5.85;;
18274;SDS011;19470;49.322;7.218;2023-05-10T01:47:40;9.10;;;6.25;;
18274;SDS011;19470;49.322;7.218;2023-05-10T01:50:10;9.15;;;6.55;;
18274;SDS011;19470;49.322;7.218;2023-05-10T01:52:44;7.50;;;6.38;;
18274;SDS011;19470;49.322;7.218;2023-05-10T01:55:20;9.88;;;8.93;;
18274;SDS011;19470;49.322;7.218;2023-05-10T01:57:56;8.05;;;5.85;;
18274;SDS011;19470;49.322;7.218;2023-05-10T02:00:34;9.85;;;6.07;;
18274;SDS011;19470;49.322;7.218;2023-05-10T02:03:04;7.22;;;6.50;;
18274;SDS011;19470;49.322;7.218;2023-05-10T02:05:34;8.05;;;6.88;;
18274;SDS011;19470;49.322;7.218;2023-05-10T02:08:10;8.45;;;7.03;;
18274;SDS011;19470;49.322;7.218;2023-05-10T02:10:42;8.82;;;6.55;;
18274;SDS011;19470;49.322;7.218;2023-05-10T02:13:18;10.35;;;6.57;;
18274;SDS011;19470;49.322;7.218;2023-05-10T02:15:48;9.52;;;7.07;;
18274;SDS011;19470;49.322;7.218;2023-05-10T02:18:40;9.35;;;7.22;;
18274;SDS011;19470;49.322;7.218;2023-05-10T02:21:07;8.60;;;6.85;;
18274;SDS011;19470;49.322;7.218;2023-05-10T02:23:40;10.88;;;7.32;;
18274;SDS011;19470;49.322;7.218;2023-05-10T02:26:11;11.95;;;7.43;;
18274;SDS011;19470;49.322;7.218;2023-05-10T02:32:02;9.93;;;7.63;;
18274;SDS011;19470;49.322;7.218;2023-05-10T02:37:57;10.05;;;8.10;;
18274;SDS011;19470;49.322;7.218;2023-05-10T02:40:26;10.85;;;8.70;;
18274;SDS011;19470;49.322;7.218;2023-05-10T02:42:54;10.73;;;8.40;;
18274;SDS011;19470;49.322;7.218;2023-05-10T02:45:27;11.40;;;9.45;;
18274;SDS011;19470;49.322;7.218;2023-05-10T02:47:58;13.52;;;9.18;;
18274;SDS011;19470;49.322;7.218;2023-05-10T02:50:30;11.20;;;8.90;;
18274;SDS011;19470;49.322;7.218;2023-05-10T02:53:09;13.70;;;9.10;;
18274;SDS011;19470;49.322;7.218;2023-05-10T02:55:39;12.50;;;9.00;;
18274;SDS011;19470;49.322;7.218;2023-05-10T02:58:09;14.98;;;9.65;;
18274;SDS011;19470;49.322;7.218;2023-05-10T03:00:36;13.35;;;9.52;;
18274;SDS011;19470;49.322;7.218;2023-05-10T03:03:03;12.70;;;8.45;;
18274;SDS011;19470;49.322;7.218;2023-05-10T03:05:31;14.35;;;8.95;;
18274;SDS011;19470;49.322;7.218;2023-05-10T03:07:58;11.73;;;8.63;;
18274;SDS011;19470;49.322;7.218;2023-05-10T03:10:32;13.10;;;8.80;;
18274;SDS011;19470;49.322;7.218;2023-05-10T03:13:10;14.57;;;9.65;;
18274;SDS011;19470;49.322;7.218;2023-05-10T03:15:44;10.90;;;8.95;;
18274;SDS011;19470;49.322;7.218;2023-05-10T03:18:19;13.30;;;9.15;;
18274;SDS011;19470;49.322;7.218;2023-05-10T03:20:49;11.82;;;9.25;;
18274;SDS011;19470;49.322;7.218;2023-05-10T03:23:20;10.50;;;7.95;;
18274;SDS011;19470;49.322;7.218;2023-05-10T03:25:55;10.18;;;8.13;;
18274;SDS011;19470;49.322;7.218;2023-05-10T03:28:24;12.20;;;8.98;;
18274;SDS011;19470;49.322;7.218;2023-05-10T03:30:52;13.68;;;8.93;;
18274;SDS011;19470;49.322;7.218;2023-05-10T03:33:22;11.80;;;8.70;;
18274;SDS011;19470;49.322;7.218;2023-05-10T03:35:48;11.23;;;8.55;;
18274;SDS011;19470;49.322;7.218;2023-05-10T03:38:20;11.27;;;8.27;;
18274;SDS011;19470;49.322;7.218;2023-05-10T03:40:48;8.52;;;7.47;;
18274;SDS011;19470;49.322;7.218;2023-05-10T03:43:23;16.13;;;7.85;;
18274;SDS011;19470;49.322;7.218;2023-05-10T03:45:50;12.23;;;7.10;;
18274;SDS011;19470;49.322;7.218;2023-05-10T03:48:16;10.68;;;7.43;;
18274;SDS011;19470;49.322;7.218;2023-05-10T03:50:43;9.75;;;6.85;;
18274;SDS011;19470;49.322;7.218;2023-05-10T03:53:09;8.73;;;7.80;;
18274;SDS011;19470;49.322;7.218;2023-05-10T03:55:37;10.32;;;7.95;;
18274;SDS011;19470;49.322;7.218;2023-05-10T03:58:03;9.65;;;8.57;;
18274;SDS011;19470;49.322;7.218;2023-05-10T04:00:31;14.57;;;8.60;;
18274;SDS011;19470;49.322;7.218;2023-05-10T04:02:58;10.85;;;8.30;;
18274;SDS011;19470;49.322;7.218;2023-05-10T04:05:25;11.70;;;8.23;;
18274;SDS011;19470;49.322;7.218;2023-05-10T04:07:52;11.02;;;8.95;;
18274;SDS011;19470;49.322;7.218;2023-05-10T04:10:18;9.57;;;8.57;;
18274;SDS011;19470;49.322;7.218;2023-05-10T04:12:46;12.73;;;9.43;;
18274;SDS011;19470;49.322;7.218;2023-05-10T04:15:12;10.52;;;8.77;;
18274;SDS011;19470;49.322;7.218;2023-05-10T04:17:40;10.70;;;8.25;;
18274;SDS011;19470;49.322;7.218;2023-05-10T04:20:07;15.63;;;8.30;;
18274;SDS011;19470;49.322;7.218;2023-05-10T04:22:34;9.77;;;8.60;;
18274;SDS011;19470;49.322;7.218;2023-05-10T04:25:02;11.35;;;8.10;;
18274;SDS011;19470;49.322;7.218;2023-05-10T04:27:29;10.65;;;7.90;;
18274;SDS011;19470;49.322;7.218;2023-05-10T04:29:56;12.70;;;8.98;;
18274;SDS011;19470;49.322;7.218;2023-05-10T04:32:23;12.05;;;9.07;;
18274;SDS011;19470;49.322;7.218;2023-05-10T04:34:51;11.70;;;9.63;;
18274;SDS011;19470;49.322;7.218;2023-05-10T04:37:18;11.93;;;9.38;;
18274;SDS011;19470;49.322;7.218;2023-05-10T04:39:46;11.15;;;9.25;;
18274;SDS011;19470;49.322;7.218;2023-05-10T04:42:13;11.43;;;8.70;;
18274;SDS011;19470;49.322;7.218;2023-05-10T04:44:40;16.00;;;10.05;;
18274;SDS011;19470;49.322;7.218;2023-05-10T04:47:07;11.27;;;7.90;;
18274;SDS011;19470;49.322;7.218;2023-05-10T04:49:34;9.82;;;7.40;;
18274;SDS011;19470;49.322;7.218;2023-05-10T04:52:02;8.95;;;7.75;;
18274;SDS011;19470;49.322;7.218;2023-05-10T04:54:29;10.35;;;7.47;;
18274;SDS011;19470;49.322;7.218;2023-05-10T04:56:57;10.00;;;7.22;;
18274;SDS011;19470;49.322;7.218;2023-05-10T04:59:24;8.27;;;6.82;;
18274;SDS011;19470;49.322;7.218;2023-05-10T05:01:50;10.32;;;6.45;;
18274;SDS011;19470;49.322;7.218;2023-05-10T05:04:17;7.50;;;4.82;;
18274;SDS011;19470;49.322;7.218;2023-05-10T05:06:43;6.75;;;5.07;;
18274;SDS011;19470;49.322;7.218;2023-05-10T05:09:11;6.68;;;4.47;;
18274;SDS011;19470;49.322;7.218;2023-05-10T05:11:38;5.40;;;4.30;;
18274;SDS011;19470;49.322;7.218;2023-05-10T05:14:06;6.05;;;4.40;;
18274;SDS011;19470;49.322;7.218;2023-05-10T05:16:32;6.88;;;4.85;;
18274;SDS011;19470;49.322;7.218;2023-05-10T05:18:59;7.28;;;4.55;;
18274;SDS011;19470;49.322;7.218;2023-05-10T05:21:26;5.25;;;4.75;;
18274;SDS011;19470;49.322;7.218;2023-05-10T05:23:53;5.68;;;4.57;;
18274;SDS011;19470;49.322;7.218;2023-05-10T05:26:21;7.18;;;4.50;;
18274;SDS011;19470;49.322;7.218;2023-05-10T05:28:48;7.50;;;5.25;;
18274;SDS011;19470;49.322;7.218;2023-05-10T05:34:40;5.95;;;5.13;;
18274;SDS011;19470;49.322;7.218;2023-05-10T05:37:06;7.00;;;4.95;;
18274;SDS011;19470;49.322;7.218;2023-05-10T05:39:35;6.82;;;5.53;;
18274;SDS011;19470;49.322;7.218;2023-05-10T05:42:03;6.57;;;5.18;;
18274;SDS011;19470;49.322;7.218;2023-05-10T05:44:30;7.30;;;5.07;;
18274;SDS011;19470;49.322;7.218;2023-05-10T05:46:56;6.50;;;5.35;;
18274;SDS011;19470;49.322;7.218;2023-05-10T05:49:23;26.38;;;20.77;;
18274;SDS011;19470;49.322;7.218;2023-05-10T05:51:49;8.52;;;5.63;;
18274;SDS011;19470;49.322;7.218;2023-05-10T05:54:16;9.65;;;5.78;;
18274;SDS011;19470;49.322;7.218;2023-05-10T05:56:43;6.57;;;4.90;;
18274;SDS011;19470;49.322;7.218;2023-05-10T05:59:11;82.15;;;60.78;;
18274;SDS011;19470;49.322;7.218;2023-05-10T06:01:37;5.32;;;4.82;;
18274;SDS011;19470;49.322;7.218;2023-05-10T06:04:04;5.35;;;4.32;;
18274;SDS011;19470;49.322;7.218;2023-05-10T06:06:30;4.78;;;3.97;;
18274;SDS011;19470;49.322;7.218;2023-05-10T06:08:57;6.28;;;4.30;;
18274;SDS011;19470;49.322;7.218;2023-05-10T06:11:24;5.00;;;4.25;;
18274;SDS011;19470;49.322;7.218;2023-05-10T06:13:51;5.57;;;4.00;;
18274;SDS011;19470;49.322;7.218;2023-05-10T06:16:19;3.90;;;3.40;;
18274;SDS011;19470;49.322;7.218;2023-05-10T06:18:45;6.85;;;3.40;;
18274;SDS011;19470;49.322;7.218;2023-05-10T06:21:12;324.10;;;218.93;;
18274;SDS011;19470;49.322;7.218;2023-05-10T06:23:38;5.63;;;3.30;;
18274;SDS011;19470;49.322;7.218;2023-05-10T06:26:05;4.45;;;3.10;;
18274;SDS011;19470;49.322;7.218;2023-05-10T06:28:31;4.20;;;2.97;;
18274;SDS011;19470;49.322;7.218;2023-05-10T06:30:58;54.72;;;37.22;;
18274;SDS011;19470;49.322;7.218;2023-05-10T06:33:26;14.10;;;12.65;;
18274;SDS011;19470;49.322;7.218;2023-05-10T06:35:53;2.88;;;2.60;;
18274;SDS011;19470;49.322;7.218;2023-05-10T06:38:19;3.10;;;2.20;;
18274;SDS011;19470;49.322;7.218;2023-05-10T06:40:46;6.03;;;2.38;;
18274;SDS011;19470;49.322;7.218;2023-05-10T06:43:12;228.60;;;131.63;;
18274;SDS011;19470;49.322;7.218;2023-05-10T06:45:39;3.67;;;2.58;;
18274;SDS011;19470;49.322;7.218;2023-05-10T06:48:06;94.68;;;68.13;;
18274;SDS011;19470;49.322;7.218;2023-05-10T06:50:37;8.23;;;7.55;;
18274;SDS011;19470;49.322;7.218;2023-05-10T06:53:03;16.15;;;12.70;;
18274;SDS011;19470;49.322;7.218;2023-05-10T06:55:30;2.97;;;2.33;;
18274;SDS011;19470;49.322;7.218;2023-05-10T06:57:57;75.93;;;57.13;;
18274;SDS011;19470;49.322;7.218;2023-05-10T07:00:23;5.13;;;3.65;;
18274;SDS011;19470;49.322;7.218;2023-05-10T07:02:50;5.28;;;2.00;;
18274;SDS011;19470;49.322;7.218;2023-05-10T07:05:17;3.17;;;1.63;;
18274;SDS011;19470;49.322;7.218;2023-05-10T07:07:46;3.05;;;2.00;;
18274;SDS011;19470;49.322;7.218;2023-05-10T07:10:12;2.35;;;2.15;;
18274;SDS011;19470;49.322;7.218;2023-05-10T07:12:39;4.38;;;3.97;;
18274;SDS011;19470;49.322;7.218;2023-05-10T07:15:06;5.60;;;2.15;;
18274;SDS011;19470;49.322;7.218;2023-05-10T07:17:34;3.50;;;2.20;;
18274;SDS011;19470;49.322;7.218;2023-05-10T07:20:01;83.15;;;74.00;;
18274;SDS011;19470;49.322;7.218;2023-05-10T07:22:28;3.17;;;2.10;;
18274;SDS011;19470;49.322;7.218;2023-05-10T07:24:56;2.38;;;2.17;;
18274;SDS011;19470;49.322;7.218;2023-05-10T07:27:23;3.45;;;3.15;;
18274;SDS011;19470;49.322;7.218;2023-05-10T07:29:50;4.75;;;4.45;;
18274;SDS011;19470;49.322;7.218;2023-05-10T07:32:16;4.22;;;3.00;;
18274;SDS011;19470;49.322;7.218;2023-05-10T07:34:43;2.22;;;1.98;;
18274;SDS011;19470;49.322;7.218;2023-05-10T07:37:09;3.65;;;3.35;;
18274;SDS011;19470;49.322;7.218;2023-05-10T07:39:36;2.20;;;1.70;;
18274;SDS011;19470;49.322;7.218;2023-05-10T07:42:04;28.55;;;19.15;;
18274;SDS011;19470;49.322;7.218;2023-05-10T07:44:31;6.28;;;2.85;;
18274;SDS011;19470;49.322;7.218;2023-05-10T07:46:57;3.53;;;1.83;;
18274;SDS011;19470;49.322;7.218;2023-05-10T07:49:25;390.20;;;347.83;;
18274;SDS011;19470;49.322;7.218;2023-05-10T07:51:51;78.90;;;46.53;;
18274;SDS011;19470;49.322;7.218;2023-05-10T07:54:18;2.20;;;1.95;;
18274;SDS011;19470;49.322;7.218;2023-05-10T07:56:44;2.88;;;2.47;;
18274;SDS011;19470;49.322;7.218;2023-05-10T07:59:15;3.92;;;2.28;;
18274;SDS011;19470;49.322;7.218;2023-05-10T08:01:43;5.25;;;2.05;;
18274;SDS011;19470;49.322;7.218;2023-05-10T08:04:10;22.65;;;21.30;;
18274;SDS011;19470;49.322;7.218;2023-05-10T08:06:36;38.63;;;35.28;;
18274;SDS011;19470;49.322;7.218;2023-05-10T08:09:03;9.25;;;8.70;;
18274;SDS011;19470;49.322;7.218;2023-05-10T08:11:29;3.67;;;3.33;;
18274;SDS011;19470;49.322;7.218;2023-05-10T08:13:56;9.50;;;8.93;;
18274;SDS011;19470;49.322;7.218;2023-05-10T08:16:24;44.58;;;38.78;;
18274;SDS011;19470;49.322;7.218;2023-05-10T08:18:51;5.13;;;4.60;;
18274;SDS011;19470;49.322;7.218;2023-05-10T08:21:20;4.63;;;3.20;;
18274;SDS011;19470;49.322;7.218;2023-05-10T08:23:46;5.15;;;4.18;;
18274;SDS011;19470;49.322;7.218;2023-05-10T08:26:13;5.00;;;4.47;;
18274;SDS011;19470;49.322;7.218;2023-05-10T08:28:42;4.90;;;4.50;;
18274;SDS011;19470;49.322;7.218;2023-05-10T08:31:09;8.82;;;8.10;;
18274;SDS011;19470;49.322;7.218;2023-05-10T08:33:37;6.15;;;5.43;;
18274;SDS011;19470;49.322;7.218;2023-05-10T08:36:03;49.85;;;43.67;;
18274;SDS011;19470;49.322;7.218;2023-05-10T08:38:30;67.95;;;63.05;;
18274;SDS011;19470;49.322;7.218;2023-05-10T08:40:57;4.53;;;3.70;;
18274;SDS011;19470;49.322;7.218;2023-05-10T08:43:26;15.38;;;14.23;;
18274;SDS011;19470;49.322;7.218;2023-05-10T08:45:55;11.73;;;10.68;;
18274;SDS011;19470;49.322;7.218;2023-05-10T08:48:23;6.60;;;6.07;;
18274;SDS011;19470;49.322;7.218;2023-05-10T08:50:52;8.05;;;7.22;;
18274;SDS011;19470;49.322;7.218;2023-05-10T08:53:20;70.32;;;65.65;;
18274;SDS011;19470;49.322;7.218;2023-05-10T08:55:50;10.95;;;10.10;;
18274;SDS011;19470;49.322;7.218;2023-05-10T08:58:16;14.77;;;13.57;;
18274;SDS011;19470;49.322;7.218;2023-05-10T09:00:44;284.73;;;259.67;;
18274;SDS011;19470;49.322;7.218;2023-05-10T09:03:11;157.98;;;146.90;;
18274;SDS011;19470;49.322;7.218;2023-05-10T09:05:41;100.63;;;94.45;;
18274;SDS011;19470;49.322;7.218;2023-05-10T09:08:11;38.58;;;35.78;;
18274;SDS011;19470;49.322;7.218;2023-05-10T09:10:38;355.92;;;329.85;;
18274;SDS011;19470;49.322;7.218;2023-05-10T09:13:07;161.75;;;152.68;;
18274;SDS011;19470;49.322;7.218;2023-05-10T09:15:35;294.42;;;277.20;;
18274;SDS011;19470;49.322;7.218;2023-05-10T09:18:01;203.65;;;191.30;;
18274;SDS011;19470;49.322;7.218;2023-05-10T09:20:29;252.10;;;237.70;;
18274;SDS011;19470;49.322;7.218;2023-05-10T09:22:56;276.60;;;259.95;;
18274;SDS011;19470;49.322;7.218;2023-05-10T09:25:23;135.48;;;127.53;;
18274;SDS011;19470;49.322;7.218;2023-05-10T09:27:50;103.22;;;97.28;;
18274;SDS011;19470;49.322;7.218;2023-05-10T09:30:22;151.27;;;142.57;;
18274;SDS011;19470;49.322;7.218;2023-05-10T09:32:50;224.70;;;203.20;;
18274;SDS011;19470;49.322;7.218;2023-05-10T09:35:17;27.20;;;25.15;;
18274;SDS011;19470;49.322;7.218;2023-05-10T09:37:45;32.80;;;30.55;;
18274;SDS011;19470;49.322;7.218;2023-05-10T09:40:14;287.10;;;267.17;;
18274;SDS011;19470;49.322;7.218;2023-05-10T09:42:50;170.35;;;159.10;;
18274;SDS011;19470;49.322;7.218;2023-05-10T09:45:17;235.73;;;222.73;;
18274;SDS011;19470;49.322;7.218;2023-05-10T09:47:44;303.23;;;286.40;;
18274;SDS011;19470;49.322;7.218;2023-05-10T09:50:12;481.17;;;452.65;;
18274;SDS011;19470;49.322;7.218;2023-05-10T09:52:48;854.33;;;794.10;;
18274;SDS011;19470;49.322;7.218;2023-05-10T09:55:16;968.78;;;886.15;;
18274;SDS011;19470;49.322;7.218;2023-05-10T09:57:46;712.42;;;666.05;;
18274;SDS011;19470;49.322;7.218;2023-05-10T10:00:16;731.85;;;683.35;;
18274;SDS011;19470;49.322;7.218;2023-05-10T10:02:44;734.78;;;686.88;;
18274;SDS011;19470;49.322;7.218;2023-05-10T10:05:12;756.95;;;704.88;;
18274;SDS011;19470;49.322;7.218;2023-05-10T10:07:39;849.45;;;791.53;;
18274;SDS011;19470;49.322;7.218;2023-05-10T10:10:07;897.10;;;834.70;;
18274;SDS011;19470;49.322;7.218;2023-05-10T10:12:36;950.42;;;881.67;;
18274;SDS011;19470;49.322;7.218;2023-05-10T10:15:05;990.88;;;917.22;;
18274;SDS011;19470;49.322;7.218;2023-05-10T10:17:33;940.75;;;873.90;;
18274;SDS011;19470;49.322;7.218;2023-05-10T10:20:03;990.70;;;918.08;;
18274;SDS011;19470;49.322;7.218;2023-05-10T10:22:30;1033.45;;;954.90;;
18274;SDS011;19470;49.322;7.218;2023-05-10T10:24:56;1058.93;;;976.22;;
18274;SDS011;19470;49.322;7.218;2023-05-10T10:27:23;1103.38;;;999.90;;
18274;SDS011;19470;49.322;7.218;2023-05-10T10:29:59;1094.32;;;999.90;;
18274;SDS011;19470;49.322;7.218;2023-05-10T10:32:34;1072.18;;;985.88;;
18274;SDS011;19470;49.322;7.218;2023-05-10T10:35:08;1070.82;;;973.88;;
18274;SDS011;19470;49.322;7.218;2023-05-10T10:37:43;966.67;;;868.53;;
18274;SDS011;19470;49.322;7.218;2023-05-10T10:42:56;896.85;;;835.00;;
18274;SDS011;19470;49.322;7.218;2023-05-10T10:45:23;915.33;;;851.13;;
18274;SDS011;19470;49.322;7.218;2023-05-10T10:47:56;955.63;;;887.17;;
18274;SDS011;19470;49.322;7.218;2023-05-10T10:50:51;979.53;;;906.75;;
18274;SDS011;19470;49.322;7.218;2023-05-10T10:53:22;940.67;;;873.65;;
18274;SDS011;19470;49.322;7.218;2023-05-10T10:55:53;1003.92;;;928.22;;
18274;SDS011;19470;49.322;7.218;2023-05-10T10:58:32;916.45;;;851.97;;
18274;SDS011;19470;49.322;7.218;2023-05-10T11:01:09;936.85;;;870.83;;
18274;SDS011;19470;49.322;7.218;2023-05-10T11:03:38;1013.47;;;936.80;;
18274;SDS011;19470;49.322;7.218;2023-05-10T11:06:05;1038.80;;;958.53;;
18274;SDS011;19470;49.322;7.218;2023-05-10T11:08:34;1020.38;;;943.05;;
18274;SDS011;19470;49.322;7.218;2023-05-10T11:11:07;1034.80;;;955.47;;
18274;SDS011;19470;49.322;7.218;2023-05-10T11:13:37;982.55;;;910.42;;
18274;SDS011;19470;49.322;7.218;2023-05-10T11:16:12;942.80;;;876.38;;
18274;SDS011;19470;49.322;7.218;2023-05-10T11:18:44;951.40;;;883.92;;
18274;SDS011;19470;49.322;7.218;2023-05-10T11:21:18;923.90;;;859.67;;
18274;SDS011;19470;49.322;7.218;2023-05-10T11:23:49;954.38;;;886.00;;
18274;SDS011;19470;49.322;7.218;2023-05-10T11:26:17;916.60;;;852.13;;
18274;SDS011;19470;49.322;7.218;2023-05-10T11:28:44;905.70;;;841.33;;
18274;SDS011;19470;49.322;7.218;2023-05-10T11:31:13;1012.40;;;935.95;;
18274;SDS011;19470;49.322;7.218;2023-05-10T11:33:44;972.15;;;893.42;;
18274;SDS011;19470;49.322;7.218;2023-05-10T11:36:12;874.25;;;814.03;;
18274;SDS011;19470;49.322;7.218;2023-05-10T11:38:40;1052.13;;;961.13;;
18274;SDS011;19470;49.322;7.218;2023-05-10T11:41:07;836.60;;;779.95;;
18274;SDS011;19470;49.322;7.218;2023-05-10T11:43:34;833.10;;;777.08;;
18274;SDS011;19470;49.322;7.218;2023-05-10T11:46:03;859.45;;;798.60;;
18274;SDS011;19470;49.322;7.218;2023-05-10T11:48:30;755.53;;;700.60;;
18274;SDS011;19470;49.322;7.218;2023-05-10T11:50:58;827.88;;;770.15;;
18274;SDS011;19470;49.322;7.218;2023-05-10T11:53:25;991.15;;;916.22;;
18274;SDS011;19470;49.322;7.218;2023-05-10T11:55:53;1107.07;;;999.90;;
18274;SDS011;19470;49.322;7.218;2023-05-10T11:58:19;1121.65;;;999.90;;
18274;SDS011;19470;49.322;7.218;2023-05-10T12:00:48;1108.30;;;999.90;;
18274;SDS011;19470;49.322;7.218;2023-05-10T12:03:15;1141.20;;;999.90;;
18274;SDS011;19470;49.322;7.218;2023-05-10T12:05:42;1062.57;;;978.90;;
18274;SDS011;19470;49.322;7.218;2023-05-10T12:08:13;1040.05;;;960.55;;
18274;SDS011;19470;49.322;7.218;2023-05-10T12:10:40;986.92;;;914.55;;
18274;SDS011;19470;49.322;7.218;2023-05-10T12:13:10;1059.05;;;970.55;;
18274;SDS011;19470;49.322;7.218;2023-05-10T12:15:38;1109.93;;;999.90;;
18274;SDS011;19470;49.322;7.218;2023-05-10T12:18:04;1185.32;;;999.90;;
18274;SDS011;19470;49.322;7.218;2023-05-10T12:20:31;1121.95;;;999.90;;
18274;SDS011;19470;49.322;7.218;2023-05-10T12:22:58;1103.68;;;999.90;;
18274;SDS011;19470;49.322;7.218;2023-05-10T12:25:30;1154.78;;;999.90;;
18274;SDS011;19470;49.322;7.218;2023-05-10T12:27:59;1053.47;;;971.60;;
18274;SDS011;19470;49.322;7.218;2023-05-10T12:30:29;1111.53;;;999.90;;
18274;SDS011;19470;49.322;7.218;2023-05-10T12:32:59;1065.38;;;981.83;;
18274;SDS011;19470;49.322;7.218;2023-05-10T12:35:29;1059.18;;;975.83;;
18274;SDS011;19470;49.322;7.218;2023-05-10T12:37:56;1001.92;;;927.45;;
18274;SDS011;19470;49.322;7.218;2023-05-10T12:40:23;1058.40;;;976.05;;
18274;SDS011;19470;49.322;7.218;2023-05-10T12:42:51;1190.53;;;999.90;;
18274;SDS011;19470;49.322;7.218;2023-05-10T12:45:18;1222.20;;;999.90;;
18274;SDS011;19470;49.322;7.218;2023-05-10T12:47:45;1259.07;;;999.90;;
18274;SDS011;19470;49.322;7.218;2023-05-10T12:50:11;1220.18;;;999.90;;
18274;SDS011;19470;49.322;7.218;2023-05-10T12:52:38;1286.82;;;999.90;;
18274;SDS011;19470;49.322;7.218;2023-05-10T12:55:05;990.05;;;917.17;;
18274;SDS011;19470;49.322;7.218;2023-05-10T12:57:31;1083.28;;;994.85;;
18274;SDS011;19470;49.322;7.218;2023-05-10T12:59:59;1055.40;;;969.38;;
18274;SDS011;19470;49.322;7.218;2023-05-10T13:02:26;1054.50;;;971.17;;
18274;SDS011;19470;49.322;7.218;2023-05-10T13:04:52;1097.25;;;999.90;;
18274;SDS011;19470;49.322;7.218;2023-05-10T13:07:19;1142.28;;;999.90;;
18274;SDS011;19470;49.322;7.218;2023-05-10T13:09:45;1212.70;;;999.90;;
18274;SDS011;19470;49.322;7.218;2023-05-10T13:12:12;1196.25;;;999.90;;
18274;SDS011;19470;49.322;7.218;2023-05-10T13:14:38;1158.18;;;999.90;;
18274;SDS011;19470;49.322;7.218;2023-05-10T13:17:07;1162.30;;;999.90;;
18274;SDS011;19470;49.322;7.218;2023-05-10T13:19:34;1223.70;;;999.90;;
18274;SDS011;19470;49.322;7.218;2023-05-10T13:22:01;1155.32;;;999.90;;
18274;SDS011;19470;49.322;7.218;2023-05-10T13:24:27;1196.97;;;999.90;;
18274;SDS011;19470;49.322;7.218;2023-05-10T13:26:54;1252.85;;;999.90;;
18274;SDS011;19470;49.322;7.218;2023-05-10T13:29:21;1271.25;;;999.90;;
18274;SDS011;19470;49.322;7.218;2023-05-10T13:31:47;1249.82;;;999.90;;
18274;SDS011;19470;49.322;7.218;2023-05-10T13:34:15;1283.07;;;999.90;;
18274;SDS011;19470;49.322;7.218;2023-05-10T13:36:45;1412.03;;;999.90;;
18274;SDS011;19470;49.322;7.218;2023-05-10T13:39:11;1610.32;;;999.90;;
18274;SDS011;19470;49.322;7.218;2023-05-10T13:41:38;1591.60;;;999.90;;
18274;SDS011;19470;49.322;7.218;2023-05-10T13:44:05;1454.65;;;999.90;;
18274;SDS011;19470;49.322;7.218;2023-05-10T13:46:31;1409.57;;;996.67;;
18274;SDS011;19470;49.322;7.218;2023-05-10T13:48:58;1318.40;;;999.90;;
18274;SDS011;19470;49.322;7.218;2023-05-10T13:51:26;1331.60;;;999.90;;
18274;SDS011;19470;49.322;7.218;2023-05-10T13:53:52;1413.53;;;999.90;;
18274;SDS011;19470;49.322;7.218;2023-05-10T13:56:19;1287.65;;;999.90;;
18274;SDS011;19470;49.322;7.218;2023-05-10T13:58:45;1294.38;;;999.90;;
18274;SDS011;19470;49.322;7.218;2023-05-10T14:01:12;1159.15;;;999.90;;
18274;SDS011;19470;49.322;7.218;2023-05-10T14:03:39;1168.32;;;999.90;;
18274;SDS011;19470;49.322;7.218;2023-05-10T14:06:05;1196.75;;;999.90;;
18274;SDS011;19470;49.322;7.218;2023-05-10T14:08:35;1230.75;;;999.90;;
18274;SDS011;19470;49.322;7.218;2023-05-10T14:11:01;1187.22;;;999.90;;
18274;SDS011;19470;49.322;7.218;2023-05-10T14:13:28;1233.95;;;999.90;;
18274;SDS011;19470;49.322;7.218;2023-05-10T14:15:54;1181.63;;;999.90;;
18274;SDS011;19470;49.322;7.218;2023-05-10T14:18:21;1160.45;;;999.90;;
18274;SDS011;19470;49.322;7.218;2023-05-10T14:20:48;1153.15;;;999.90;;
18274;SDS011;19470;49.322;7.218;2023-05-10T14:23:14;1148.75;;;999.90;;
18274;SDS011;19470;49.322;7.218;2023-05-10T14:25:42;1194.40;;;999.90;;
18274;SDS011;19470;49.322;7.218;2023-05-10T14:28:09;1236.05;;;999.90;;
18274;SDS011;19470;49.322;7.218;2023-05-10T14:30:36;1235.35;;;999.90;;
18274;SDS011;19470;49.322;7.218;2023-05-10T14:33:03;1300.75;;;999.90;;
18274;SDS011;19470;49.322;7.218;2023-05-10T14:35:29;1292.35;;;999.90;;
18274;SDS011;19470;49.322;7.218;2023-05-10T14:37:57;1417.78;;;999.90;;
18274;SDS011;19470;49.322;7.218;2023-05-10T14:40:23;1400.50;;;999.90;;
18274;SDS011;19470;49.322;7.218;2023-05-10T14:42:51;1461.78;;;999.90;;